Radnor, Ohio
Current Conditions -  °F | °C
As of 11:59 AM on Saturday 22 Nov 2014 (Local Time) from KDLZ Reporting Station
Light Rain Light Rain  
Wind Chill: 29°   Ceiling: 6000
Heat Index: 36°   Visibility: 7mi
Dew Point: 32°   Wind: 8mph
Humidity: 87%   Direction: 190°S
Pressure: 30.19"   Gusts: NA
Location:  40.38°N, 83.15°W
Report Text: KDLZ 221659Z AUTO 19007KT 7SM -RA SCT044 BKN060 OVC070 02/00 A3019 RMK AO2
Loading
Personal Weather Stations






























Interactive Weather Map New forecast layout! Learn more

10-Day Weather Forecast

Advertisements
Track Severe Weather on mobile